Station History

Weather Underground - logo

Station Historical Data
Daily Summary for September 27, 2017 Units:  English    Metric   Both
« Previous Day
Next Day »
Daily Weekly Monthly Yearly Custom
  High: Low: Average:
Temperature: 92.3 °F 53.3 °F 71.3 °F
Dew Point: 54.9 °F 41.5 °F 48.9 °F
Humidity: 89 % 18 % 52 %
Wind Speed: 4.6 mph 0.0 mph 0.8 mph
Wind Gust: 4.6 mph - -
Wind:- - SW
Pressure: 29.90 in 29.80 in -
Precipitation: 0.00 in    
Historical Graphs
 
 
Tabular Data for September 27, 2017
Time Temperature Dew Point Pressure Wind Wind Speed Wind Gust Humidity Rainfall Rate (Hourly)
00:01 62.3 °F 49.5 °F 29.80 in Calm     63 % 0.00 in
00:06 62.1 °F 50.2 °F 29.80 in Calm     65 % 0.00 in
00:11 61.8 °F 50.7 °F 29.80 in Calm     67 % 0.00 in
00:16 61.4 °F 49.9 °F 29.80 in Calm     66 % 0.00 in
00:21 61.0 °F 49.6 °F 29.80 in Calm     66 % 0.00 in
00:26 60.9 °F 51.0 °F 29.80 in Calm     70 % 0.00 in
00:31 60.7 °F 51.6 °F 29.80 in Calm     72 % 0.00 in
00:37 60.4 °F 51.0 °F 29.80 in Calm     71 % 0.00 in
00:42 60.3 °F 50.9 °F 29.80 in Calm     71 % 0.00 in
00:47 60.2 °F 51.9 °F 29.81 in Calm     74 % 0.00 in
00:52 60.1 °F 51.0 °F 29.81 in Calm     72 % 0.00 in
00:57 59.9 °F 51.2 °F 29.81 in Calm     73 % 0.00 in
01:02 59.3 °F 51.0 °F 29.81 in Calm     74 % 0.00 in
01:07 58.5 °F 50.2 °F 29.82 in NNE 1.2 mph   74 % 0.00 in
01:12 58.0 °F 49.8 °F 29.82 in NNW 1.2 mph 1.2 mph 74 % 0.00 in
01:17 57.9 °F 50.4 °F 29.82 in Calm     76 % 0.00 in
01:22 57.9 °F 50.0 °F 29.82 in Calm     75 % 0.00 in
01:27 58.0 °F 50.1 °F 29.82 in Calm     75 % 0.00 in
01:32 58.0 °F 50.5 °F 29.82 in Calm     76 % 0.00 in
01:37 57.9 °F 50.4 °F 29.82 in Calm     76 % 0.00 in
01:42 57.8 °F 49.9 °F 29.82 in Calm     75 % 0.00 in
01:47 57.8 °F 49.9 °F 29.82 in Calm     75 % 0.00 in
01:52 58.0 °F 50.1 °F 29.82 in Calm     75 % 0.00 in
01:57 58.2 °F 49.6 °F 29.82 in North 1.2 mph   73 % 0.00 in
02:02 58.2 °F 49.2 °F 29.83 in Calm     72 % 0.00 in
02:07 58.1 °F 49.9 °F 29.83 in Calm     74 % 0.00 in
02:12 58.1 °F 49.9 °F 29.82 in Calm     74 % 0.00 in
02:17 58.0 °F 50.1 °F 29.83 in Calm     75 % 0.00 in
02:22 57.8 °F 50.3 °F 29.83 in Calm     76 % 0.00 in
02:27 57.7 °F 50.2 °F 29.83 in Calm     76 % 0.00 in
02:32 57.9 °F 50.4 °F 29.83 in Calm     76 % 0.00 in
02:37 57.9 °F 50.0 °F 29.83 in Calm     75 % 0.00 in
02:42 58.0 °F 50.1 °F 29.83 in Calm     75 % 0.00 in
02:47 58.2 °F 50.0 °F 29.83 in Calm     74 % 0.00 in
02:52 58.1 °F 50.2 °F 29.83 in Calm     75 % 0.00 in
02:57 57.8 °F 49.6 °F 29.83 in Calm     74 % 0.00 in
03:02 57.7 °F 49.5 °F 29.82 in Calm     74 % 0.00 in
03:07 57.6 °F 50.4 °F 29.83 in Calm     77 % 0.00 in
03:12 57.0 °F 50.2 °F 29.83 in Calm     78 % 0.00 in
03:17 56.3 °F 49.5 °F 29.83 in Calm     78 % 0.00 in
03:22 55.7 °F 48.9 °F 29.82 in Calm     78 % 0.00 in
03:27 55.5 °F 48.4 °F 29.82 in Calm     77 % 0.00 in
03:32 55.3 °F 48.2 °F 29.83 in Calm     77 % 0.00 in
03:37 55.3 °F 48.9 °F 29.83 in Calm     79 % 0.00 in
03:42 55.1 °F 49.0 °F 29.83 in Calm     80 % 0.00 in
03:47 54.7 °F 48.3 °F 29.83 in Calm     79 % 0.00 in
03:52 54.3 °F 48.6 °F 29.83 in Calm     81 % 0.00 in
03:57 54.2 °F 48.8 °F 29.83 in Calm     82 % 0.00 in
04:02 54.2 °F 48.8 °F 29.83 in Calm     82 % 0.00 in
04:07 54.1 °F 48.7 °F 29.83 in Calm     82 % 0.00 in
04:12 54.1 °F 49.4 °F 29.83 in North 1.2 mph   84 % 0.00 in
04:17 54.2 °F 49.5 °F 29.83 in Calm     84 % 0.00 in
04:22 54.2 °F 49.5 °F 29.83 in Calm     84 % 0.00 in
04:25 54.1 °F 49.1 °F 29.83 in Calm     83 % 0.00 in
04:30 54.0 °F 49.0 °F 29.83 in Calm     83 % 0.00 in
04:35 54.3 °F 49.2 °F 29.83 in North 1.2 mph 1.2 mph 83 % 0.00 in
04:40 54.9 °F 48.8 °F 29.83 in Calm     80 % 0.00 in
04:45 55.2 °F 48.8 °F 29.83 in Calm     79 % 0.00 in
04:50 55.1 °F 49.4 °F 29.83 in Calm     81 % 0.00 in
04:55 54.5 °F 49.1 °F 29.83 in Calm     82 % 0.00 in
05:00 54.2 °F 48.8 °F 29.83 in Calm     82 % 0.00 in
05:05 54.0 °F 49.0 °F 29.83 in Calm     83 % 0.00 in
05:10 53.7 °F 49.0 °F 29.83 in Calm     84 % 0.00 in
05:15 53.5 °F 49.1 °F 29.83 in Calm     85 % 0.00 in
05:20 53.5 °F 49.1 °F 29.83 in Calm     85 % 0.00 in
05:25 53.5 °F 49.1 °F 29.83 in Calm     85 % 0.00 in
05:30 53.6 °F 49.5 °F 29.84 in Calm     86 % 0.00 in
05:35 53.9 °F 49.5 °F 29.84 in Calm     85 % 0.00 in
05:40 54.0 °F 49.6 °F 29.84 in Calm     85 % 0.00 in
05:45 54.1 °F 49.4 °F 29.84 in Calm     84 % 0.00 in
05:50 54.5 °F 49.4 °F 29.84 in Calm     83 % 0.00 in
05:55 54.7 °F 49.6 °F 29.84 in Calm     83 % 0.00 in
06:00 54.7 °F 49.6 °F 29.84 in Calm     83 % 0.00 in
06:05 54.5 °F 49.4 °F 29.85 in Calm     83 % 0.00 in
06:10 54.5 °F 49.4 °F 29.85 in Calm   0.1 mph 83 % 0.00 in
06:15 54.1 °F 49.4 °F 29.85 in Calm     84 % 0.00 in
06:20 53.9 °F 49.5 °F 29.85 in Calm     85 % 0.00 in
06:25 53.8 °F 49.4 °F 29.85 in Calm     85 % 0.00 in
06:30 53.9 °F 50.1 °F 29.85 in Calm     87 % 0.00 in
06:35 53.6 °F 49.5 °F 29.85 in Calm     86 % 0.00 in
06:40 53.6 °F 50.1 °F 29.86 in Calm     88 % 0.00 in
06:45 53.6 °F 50.4 °F 29.86 in Calm     89 % 0.00 in
06:50 53.3 °F 49.2 °F 29.86 in Calm     86 % 0.00 in
06:55 53.7 °F 49.0 °F 29.86 in Calm     84 % 0.00 in
07:00 54.2 °F 48.5 °F 29.86 in Calm     81 % 0.00 in
07:05 54.5 °F 48.5 °F 29.86 in Calm     80 % 0.00 in
07:10 54.5 °F 49.4 °F 29.86 in Calm     83 % 0.00 in
07:15 54.3 °F 48.9 °F 29.87 in Calm     82 % 0.00 in
07:20 54.2 °F 49.1 °F 29.87 in Calm     83 % 0.00 in
07:25 54.4 °F 50.0 °F 29.87 in Calm     85 % 0.00 in
07:30 54.5 °F 50.1 °F 29.87 in Calm     85 % 0.00 in
07:35 54.7 °F 49.6 °F 29.87 in Calm     83 % 0.00 in
07:40 54.9 °F 49.2 °F 29.88 in Calm     81 % 0.00 in
07:45 55.3 °F 49.9 °F 29.88 in Calm     82 % 0.00 in
07:48 55.5 °F 50.4 °F 29.88 in Calm     83 % 0.00 in
07:53 55.9 °F 50.2 °F 29.88 in Calm     81 % 0.00 in
07:58 56.6 °F 50.2 °F 29.88 in Calm     79 % 0.00 in
08:03 57.8 °F 51.3 °F 29.88 in Calm     79 % 0.00 in
08:08 59.8 °F 51.9 °F 29.89 in Calm     75 % 0.00 in
08:13 61.5 °F 52.8 °F 29.89 in Calm     73 % 0.00 in
08:18 63.6 °F 52.8 °F 29.89 in Calm     68 % 0.00 in
08:23 65.8 °F 52.9 °F 29.89 in Calm     63 % 0.00 in
08:28 66.8 °F 52.5 °F 29.89 in Calm     60 % 0.00 in
08:33 68.1 °F 49.8 °F 29.89 in SSE 1.0 mph 1.0 mph 52 % 0.00 in
08:38 69.3 °F 49.3 °F 29.89 in Calm     49 % 0.00 in
08:43 70.3 °F 48.5 °F 29.89 in SSE 1.2 mph 1.2 mph 46 % 0.00 in
08:48 71.0 °F 47.4 °F 29.89 in SE 1.2 mph 1.2 mph 43 % 0.00 in
08:53 71.8 °F 47.5 °F 29.89 in SE 1.2 mph 1.2 mph 42 % 0.00 in
08:58 73.0 °F 47.9 °F 29.89 in SE 1.2 mph   41 % 0.00 in
09:03 73.9 °F 48.1 °F 29.89 in SSE 1.2 mph 1.2 mph 40 % 0.00 in
09:08 73.9 °F 47.4 °F 29.90 in NNW 1.2 mph 1.2 mph 39 % 0.00 in
09:13 73.6 °F 48.4 °F 29.90 in SSW 1.0 mph 1.0 mph 41 % 0.00 in
09:18 74.3 °F 48.4 °F 29.90 in SE 1.2 mph 1.2 mph 40 % 0.00 in
09:23 75.0 °F 49.7 °F 29.90 in Calm   0.2 mph 41 % 0.00 in
09:28 75.5 °F 48.8 °F 29.90 in South 2.3 mph 2.3 mph 39 % 0.00 in
09:33 75.6 °F 48.2 °F 29.90 in ENE 1.2 mph 1.2 mph 38 % 0.00 in
09:38 75.8 °F 49.1 °F 29.90 in SSE 2.3 mph 2.3 mph 39 % 0.00 in
09:43 76.1 °F 48.6 °F 29.90 in ESE 1.0 mph 1.0 mph 38 % 0.00 in
09:48 76.6 °F 49.1 °F 29.90 in SSE 1.2 mph 1.2 mph 38 % 0.00 in
09:53 76.8 °F 47.8 °F 29.90 in NE 2.3 mph 2.3 mph 36 % 0.00 in
09:58 76.9 °F 47.9 °F 29.90 in SSE 1.2 mph 1.2 mph 36 % 0.00 in
10:03 77.5 °F 47.7 °F 29.90 in SE 1.2 mph 1.2 mph 35 % 0.00 in
10:08 78.0 °F 48.9 °F 29.90 in SSE 1.2 mph   36 % 0.00 in
10:13 78.5 °F 47.8 °F 29.90 in SSW 1.0 mph   34 % 0.00 in
10:18 78.9 °F 47.3 °F 29.90 in SSE 2.3 mph 2.3 mph 33 % 0.00 in
10:23 78.9 °F 48.1 °F 29.90 in NW 1.2 mph 1.2 mph 34 % 0.00 in
10:28 79.1 °F 47.5 °F 29.90 in SSE 1.2 mph 1.2 mph 33 % 0.00 in
10:33 79.4 °F 47.0 °F 29.90 in NW 1.2 mph 1.2 mph 32 % 0.00 in
10:38 79.5 °F 47.1 °F 29.90 in East 3.5 mph 3.5 mph 32 % 0.00 in
10:43 79.8 °F 46.5 °F 29.90 in SE 2.3 mph 2.3 mph 31 % 0.00 in
10:48 80.1 °F 49.2 °F 29.90 in SE 3.5 mph 3.5 mph 34 % 0.00 in
10:53 80.5 °F 47.9 °F 29.90 in SE 4.6 mph 4.6 mph 32 % 0.00 in
10:58 80.8 °F 48.2 °F 29.90 in ESE 1.2 mph 1.2 mph 32 % 0.00 in
11:03 81.4 °F 49.5 °F 29.90 in ESE 1.2 mph 1.2 mph 33 % 0.00 in
11:08 81.8 °F 46.4 °F 29.90 in North 3.0 mph 3.0 mph 29 % 0.00 in
11:13 81.9 °F 47.4 °F 29.90 in NW 1.2 mph 1.2 mph 30 % 0.00 in
11:18 82.2 °F 47.7 °F 29.90 in SE 2.3 mph 2.3 mph 30 % 0.00 in
11:23 82.8 °F 50.8 °F 29.89 in SSE 1.2 mph   33 % 0.00 in
11:28 83.1 °F 47.5 °F 29.89 in NW 1.2 mph   29 % 0.00 in
11:33 83.0 °F 45.6 °F 29.89 in NW 1.2 mph   27 % 0.00 in
11:38 83.3 °F 47.7 °F 29.89 in SE 2.0 mph 2.0 mph 29 % 0.00 in
11:43 83.9 °F 47.3 °F 29.89 in Calm     28 % 0.00 in
11:46 84.1 °F 45.5 °F 29.89 in WNW 1.2 mph 1.2 mph 26 % 0.00 in
11:51 83.8 °F 48.1 °F 29.89 in WNW 1.2 mph 1.2 mph 29 % 0.00 in
11:56 84.0 °F 47.4 °F 29.88 in NNW 1.2 mph 1.2 mph 28 % 0.00 in
12:01 84.5 °F 45.8 °F 29.88 in SE 1.2 mph   26 % 0.00 in
12:06 84.6 °F 47.9 °F 29.88 in SW 3.5 mph 3.5 mph 28 % 0.00 in
12:11 85.5 °F 47.7 °F 29.88 in ESE 1.2 mph 1.2 mph 27 % 0.00 in
12:16 86.1 °F 47.2 °F 29.88 in Calm     26 % 0.00 in
12:21 86.6 °F 47.6 °F 29.88 in ESE 2.3 mph 2.3 mph 26 % 0.00 in
12:26 87.1 °F 49.1 °F 29.87 in NW 1.2 mph   27 % 0.00 in
12:31 86.7 °F 45.6 °F 29.87 in WNW 1.2 mph 1.2 mph 24 % 0.00 in
12:36 86.6 °F 46.6 °F 29.87 in SSW 1.2 mph 1.2 mph 25 % 0.00 in
12:41 87.2 °F 49.1 °F 29.87 in SE 1.0 mph   27 % 0.00 in
12:46 87.2 °F 49.1 °F 29.87 in SSW 1.2 mph 1.2 mph 27 % 0.00 in
12:51 87.5 °F 49.4 °F 29.87 in SSE 1.2 mph 1.2 mph 27 % 0.00 in
12:56 87.7 °F 45.3 °F 29.86 in NW 1.2 mph 1.2 mph 23 % 0.00 in
13:02 87.5 °F 45.1 °F 29.86 in North 2.3 mph 2.3 mph 23 % 0.00 in
13:07 87.7 °F 45.3 °F 29.86 in WNW 1.2 mph 1.2 mph 23 % 0.00 in
13:12 88.4 °F 47.0 °F 29.86 in Calm     24 % 0.00 in
13:17 88.9 °F 47.4 °F 29.85 in NW 1.2 mph 1.2 mph 24 % 0.00 in
13:22 88.8 °F 46.2 °F 29.85 in WNW 1.2 mph   23 % 0.00 in
13:27 89.2 °F 47.7 °F 29.85 in SW 1.2 mph 1.2 mph 24 % 0.00 in
13:32 89.2 °F 46.6 °F 29.85 in NE 1.2 mph 1.2 mph 23 % 0.00 in
13:37 89.4 °F 48.9 °F 29.85 in SW 1.2 mph   25 % 0.00 in
13:42 89.8 °F 48.2 °F 29.84 in NW 2.3 mph 2.3 mph 24 % 0.00 in
13:47 89.5 °F 45.6 °F 29.84 in NW 3.5 mph 3.5 mph 22 % 0.00 in
13:52 89.3 °F 43.0 °F 29.84 in NW 2.3 mph 2.3 mph 20 % 0.00 in
13:57 89.1 °F 44.1 °F 29.84 in West 3.5 mph 3.5 mph 21 % 0.00 in
14:02 89.1 °F 42.8 °F 29.84 in NW 2.3 mph 2.3 mph 20 % 0.00 in
14:07 89.2 °F 44.2 °F 29.84 in NNW 1.2 mph   21 % 0.00 in
14:12 89.6 °F 44.5 °F 29.83 in WNW 2.3 mph 2.3 mph 21 % 0.00 in
14:17 89.6 °F 44.5 °F 29.83 in WNW 1.2 mph 1.2 mph 21 % 0.00 in
14:22 89.8 °F 45.9 °F 29.83 in NW 1.2 mph 1.2 mph 22 % 0.00 in
14:27 90.2 °F 46.2 °F 29.83 in NW 1.2 mph 1.2 mph 22 % 0.00 in
14:32 91.1 °F 47.0 °F 29.83 in NNE 2.3 mph 2.3 mph 22 % 0.00 in
14:37 91.3 °F 45.9 °F 29.83 in WNW 1.2 mph 1.2 mph 21 % 0.00 in
14:42 91.4 °F 46.0 °F 29.83 in WNW 2.0 mph 2.0 mph 21 % 0.00 in
14:47 91.8 °F 45.0 °F 29.83 in East 2.3 mph 2.3 mph 20 % 0.00 in
14:52 92.1 °F 45.3 °F 29.83 in SE 2.3 mph 2.3 mph 20 % 0.00 in
14:57 92.3 °F 44.1 °F 29.83 in ESE 1.2 mph 1.2 mph 19 % 0.00 in
15:02 92.0 °F 45.2 °F 29.83 in NW 3.5 mph 3.5 mph 20 % 0.00 in
15:07 91.6 °F 46.1 °F 29.83 in WNW 1.2 mph 1.2 mph 21 % 0.00 in
15:12 91.6 °F 46.1 °F 29.82 in NW 2.3 mph 2.3 mph 21 % 0.00 in
15:17 91.6 °F 44.9 °F 29.82 in Calm     20 % 0.00 in
15:22 91.9 °F 46.4 °F 29.82 in Calm   0.1 mph 21 % 0.00 in
15:27 91.8 °F 45.0 °F 29.82 in NW 2.3 mph 2.3 mph 20 % 0.00 in
15:32 91.3 °F 45.9 °F 29.82 in North 1.2 mph 1.2 mph 21 % 0.00 in
15:37 91.5 °F 43.4 °F 29.82 in WNW 2.3 mph 2.3 mph 19 % 0.00 in
15:42 91.8 °F 43.7 °F 29.82 in WNW 1.2 mph 1.2 mph 19 % 0.00 in
15:47 91.3 °F 44.6 °F 29.82 in WNW 1.2 mph 1.2 mph 20 % 0.00 in
15:52 91.1 °F 44.4 °F 29.82 in NW 3.5 mph 3.5 mph 20 % 0.00 in
15:57 90.9 °F 41.5 °F 29.82 in NNW 2.3 mph 2.3 mph 18 % 0.00 in
16:02 90.9 °F 42.9 °F 29.82 in NNW 4.0 mph 4.0 mph 19 % 0.00 in
16:07 90.7 °F 44.1 °F 29.82 in NW 3.5 mph 3.5 mph 20 % 0.00 in
16:12 90.5 °F 43.9 °F 29.82 in West 3.0 mph 3.0 mph 20 % 0.00 in
16:17 90.4 °F 43.9 °F 29.82 in NW 3.5 mph 3.5 mph 20 % 0.00 in
16:22 90.2 °F 42.4 °F 29.81 in NW 3.5 mph 3.5 mph 19 % 0.00 in
16:27 90.1 °F 42.3 °F 29.82 in NW 3.5 mph 3.5 mph 19 % 0.00 in
16:32 90.0 °F 43.5 °F 29.81 in WNW 3.5 mph 3.5 mph 20 % 0.00 in
16:37 89.8 °F 43.4 °F 29.81 in NW 2.3 mph   20 % 0.00 in
16:42 89.7 °F 43.3 °F 29.81 in WNW 3.5 mph 3.5 mph 20 % 0.00 in
16:47 89.5 °F 43.1 °F 29.81 in NW 3.5 mph 3.5 mph 20 % 0.00 in
16:52 89.5 °F 44.4 °F 29.81 in NW 4.6 mph 4.6 mph 21 % 0.00 in
16:57 89.4 °F 43.0 °F 29.81 in NW 2.3 mph 2.3 mph 20 % 0.00 in
17:02 89.2 °F 44.2 °F 29.81 in NW 2.3 mph 2.3 mph 21 % 0.00 in
17:07 89.0 °F 44.0 °F 29.81 in NW 2.3 mph 2.3 mph 21 % 0.00 in
17:12 88.8 °F 43.8 °F 29.81 in NW 3.5 mph 3.5 mph 21 % 0.00 in
17:23 88.6 °F 44.9 °F 29.81 in NW 2.3 mph 2.3 mph 22 % 0.00 in
17:28 88.3 °F 45.8 °F 29.81 in NW 3.5 mph 3.5 mph 23 % 0.00 in
17:33 88.1 °F 44.5 °F 29.81 in NW 2.3 mph 2.3 mph 22 % 0.00 in
17:38 87.9 °F 45.5 °F 29.81 in NNW 3.5 mph 3.5 mph 23 % 0.00 in
17:43 87.5 °F 44.0 °F 29.81 in NNW 1.2 mph 1.2 mph 22 % 0.00 in
17:48 87.3 °F 46.1 °F 29.81 in NW 1.2 mph 1.2 mph 24 % 0.00 in
17:54 86.9 °F 44.6 °F 29.81 in NW 1.2 mph 1.2 mph 23 % 0.00 in
17:59 86.6 °F 45.5 °F 29.81 in WNW 1.2 mph 1.2 mph 24 % 0.00 in
18:04 86.2 °F 45.2 °F 29.81 in NW 1.2 mph 1.2 mph 24 % 0.00 in
18:09 85.9 °F 46.0 °F 29.81 in NW 1.2 mph   25 % 0.00 in
18:14 85.4 °F 46.6 °F 29.81 in Calm     26 % 0.00 in
18:19 84.9 °F 48.2 °F 29.81 in Calm     28 % 0.00 in
18:24 84.1 °F 48.4 °F 29.81 in Calm     29 % 0.00 in
18:29 83.5 °F 47.9 °F 29.82 in Calm     29 % 0.00 in
18:34 82.9 °F 49.2 °F 29.81 in Calm     31 % 0.00 in
18:39 82.0 °F 50.9 °F 29.82 in Calm     34 % 0.00 in
18:44 80.9 °F 51.4 °F 29.82 in Calm     36 % 0.00 in
18:49 79.9 °F 52.0 °F 29.82 in Calm     38 % 0.00 in
18:54 79.1 °F 52.0 °F 29.82 in Calm     39 % 0.00 in
18:59 78.2 °F 51.9 °F 29.82 in Calm     40 % 0.00 in
19:04 77.3 °F 51.1 °F 29.82 in Calm     40 % 0.00 in
19:09 76.6 °F 50.5 °F 29.82 in Calm     40 % 0.00 in
19:14 76.0 °F 51.2 °F 29.82 in Calm     42 % 0.00 in
19:19 75.4 °F 51.3 °F 29.82 in Calm     43 % 0.00 in
19:21 75.2 °F 51.2 °F 29.82 in Calm     43 % 0.00 in
19:26 74.6 °F 52.4 °F 29.82 in Calm     46 % 0.00 in
19:31 74.2 °F 52.7 °F 29.82 in Calm     47 % 0.00 in
19:33 74.0 °F 53.1 °F 29.82 in Calm     48 % 0.00 in
19:38 73.6 °F 53.3 °F 29.82 in Calm     49 % 0.00 in
19:43 73.5 °F 53.2 °F 29.82 in Calm     49 % 0.00 in
19:48 73.0 °F 52.7 °F 29.82 in Calm     49 % 0.00 in
19:53 72.8 °F 52.5 °F 29.83 in Calm     49 % 0.00 in
19:58 72.7 °F 52.4 °F 29.83 in Calm     49 % 0.00 in
20:03 72.6 °F 52.9 °F 29.83 in Calm     50 % 0.00 in
20:08 72.4 °F 52.7 °F 29.83 in Calm     50 % 0.00 in
20:13 72.3 °F 51.5 °F 29.83 in Calm     48 % 0.00 in
20:18 72.0 °F 51.8 °F 29.83 in Calm     49 % 0.00 in
20:23 71.9 °F 52.2 °F 29.83 in Calm     50 % 0.00 in
20:28 71.7 °F 52.1 °F 29.83 in Calm     50 % 0.00 in
20:33 71.5 °F 51.3 °F 29.83 in Calm     49 % 0.00 in
20:43 71.3 °F 52.8 °F 29.83 in Calm     52 % 0.00 in
20:48 70.9 °F 54.9 °F 29.83 in Calm     57 % 0.00 in
20:53 70.2 °F 53.8 °F 29.83 in Calm     56 % 0.00 in
20:58 69.3 °F 53.4 °F 29.83 in Calm     57 % 0.00 in
21:03 69.2 °F 54.3 °F 29.84 in Calm     59 % 0.00 in
21:08 69.1 °F 54.2 °F 29.83 in Calm     59 % 0.00 in
21:14 69.0 °F 53.6 °F 29.84 in Calm     58 % 0.00 in
21:19 68.8 °F 53.4 °F 29.84 in Calm     58 % 0.00 in
21:24 68.4 °F 54.0 °F 29.84 in Calm     60 % 0.00 in
21:29 68.4 °F 52.1 °F 29.84 in Calm     56 % 0.00 in
21:34 68.3 °F 51.5 °F 29.84 in Calm     55 % 0.00 in
21:39 68.4 °F 51.1 °F 29.84 in Calm     54 % 0.00 in
21:44 68.8 °F 49.9 °F 29.84 in Calm     51 % 0.00 in
21:49 68.7 °F 52.4 °F 29.84 in Calm     56 % 0.00 in
21:54 67.6 °F 52.3 °F 29.85 in Calm     58 % 0.00 in
21:59 65.8 °F 52.4 °F 29.85 in Calm   0.1 mph 62 % 0.00 in
22:04 64.7 °F 52.7 °F 29.85 in Calm     65 % 0.00 in
22:09 64.4 °F 52.8 °F 29.85 in Calm     66 % 0.00 in
22:14 64.1 °F 53.3 °F 29.86 in Calm     68 % 0.00 in
22:19 63.7 °F 52.5 °F 29.86 in Calm     67 % 0.00 in
22:24 63.4 °F 52.7 °F 29.86 in Calm     68 % 0.00 in
22:30 63.5 °F 52.7 °F 29.86 in Calm     68 % 0.00 in
22:35 63.6 °F 52.8 °F 29.86 in Calm     68 % 0.00 in
22:40 63.6 °F 52.8 °F 29.86 in Calm     68 % 0.00 in
22:45 63.7 °F 52.5 °F 29.86 in Calm     67 % 0.00 in
22:50 64.1 °F 52.9 °F 29.86 in Calm     67 % 0.00 in
22:55 64.2 °F 51.3 °F 29.86 in Calm     63 % 0.00 in
23:00 64.5 °F 51.2 °F 29.86 in Calm     62 % 0.00 in
23:05 64.6 °F 51.3 °F 29.87 in Calm     62 % 0.00 in
23:10 64.5 °F 52.0 °F 29.87 in Calm     64 % 0.00 in
23:15 64.4 °F 50.7 °F 29.87 in Calm     61 % 0.00 in
23:20 64.6 °F 52.1 °F 29.87 in Calm     64 % 0.00 in
23:25 64.4 °F 53.2 °F 29.87 in Calm     67 % 0.00 in
23:30 63.6 °F 52.8 °F 29.87 in Calm     68 % 0.00 in
23:35 63.1 °F 52.4 °F 29.87 in SE 1.2 mph 1.2 mph 68 % 0.00 in
23:40 62.9 °F 52.6 °F 29.88 in Calm     69 % 0.00 in
23:45 62.6 °F 52.3 °F 29.88 in Calm     69 % 0.00 in
23:50 62.3 °F 52.4 °F 29.88 in Calm     70 % 0.00 in
23:55 62.0 °F 52.1 °F 29.88 in Calm     70 % 0.00 in
Park Place, Exeter, Tulare County, California, USA
Compliments of Weather Underground - 2.75 mb